Time;durP1;ratioP1;P1;durP2;ratioP2;P2;SDS_P1;SDS_P2;PMS_P1;PMS_P2;Temp;Humidity;BMP_temperature;BMP_pressure;BME280_temperature;BME280_humidity;BME280_pressure;Samples;Min_cycle;Max_cycle;Signal;HPM_P1;HPM_P2
2023/03/04 00:01:57;;;;;;;;;;;;;;;4.13;100.00;93388.28;5099543;28;20041;-50
2023/03/04 00:04:22;;;;;;;;;;;;;;;4.15;100.00;93393.22;5103736;28;20016;-49
2023/03/04 00:06:48;;;;;;;;;;;;;;;4.09;100.00;93398.72;5098640;28;19919;-50
2023/03/04 00:09:13;;;;;;;;;;;;;;;4.11;100.00;93393.50;5104217;28;19912;-49
2023/03/04 00:11:38;;;;;;;;;;;;;;;4.13;100.00;93382.81;5097891;28;19916;-50
2023/03/04 00:14:04;;;;;;;;;;;;;;;4.26;100.00;93385.69;5093370;28;19994;-50
2023/03/04 00:16:29;;;;;;;;;;;;;;;4.21;100.00;93383.72;5089676;28;19913;-49
2023/03/04 00:18:55;;;;;;;;;;;;;;;4.28;100.00;93377.72;5092099;28;19973;-50
2023/03/04 00:21:20;;;;;;;;;;;;;;;4.23;100.00;93375.75;5086891;28;20615;-51
2023/03/04 00:23:46;;;;;;;;;;;;;;;4.32;100.00;93380.91;5091071;28;19931;-49
2023/03/04 00:26:12;;;;;;;;;;;;;;;4.31;100.00;93376.69;5091558;28;20010;-50
2023/03/04 00:28:38;;;;;;;;;;;;;;;4.33;100.00;93374.16;5091765;28;20304;-51
2023/03/04 00:31:04;;;;;;;;;;;;;;;4.34;100.00;93370.19;5094466;28;19921;-51
2023/03/04 00:33:29;;;;;;;;;;;;;;;4.31;100.00;93371.22;5088966;28;19916;-50
2023/03/04 00:35:54;;;;;;;;;;;;;;;4.43;100.00;93367.16;5090405;28;19916;-50
2023/03/04 00:38:20;;;;;;;;;;;;;;;4.42;100.00;93371.13;5095116;28;19927;-49
2023/03/04 00:40:45;;;;;;;;;;;;;;;4.37;100.00;93350.06;5088780;28;20484;-50
2023/03/04 00:43:10;;;;;;;;;;;;;;;4.53;100.00;93376.50;5092209;28;19916;-50
2023/03/04 00:45:35;;;;;;;;;;;;;;;4.53;100.00;93373.00;5088441;28;20440;-49
2023/03/04 00:48:01;;;;;;;;;;;;;;;4.51;100.00;93376.25;5099457;28;19943;-51
2023/03/04 00:50:26;;;;;;;;;;;;;;;4.65;100.00;93376.38;5096133;28;20019;-49
2023/03/04 00:52:51;;;;;;;;;;;;;;;4.60;100.00;93367.72;5086340;28;19943;-54
2023/03/04 00:55:16;;;;;;;;;;;;;;;4.55;100.00;93365.03;5089694;28;19974;-51
2023/03/04 00:57:42;;;;;;;;;;;;;;;4.60;100.00;93356.78;5094984;28;20003;-53
2023/03/04 01:00:07;;;;;;;;;;;;;;;4.69;100.00;93361.19;5100725;28;19981;-54
2023/03/04 01:02:33;;;;;;;;;;;;;;;4.50;100.00;93360.38;5093351;28;20428;-51
2023/03/04 01:04:58;;;;;;;;;;;;;;;4.37;100.00;93358.25;5089577;28;19920;-50
2023/03/04 01:07:23;;;;;;;;;;;;;;;4.38;100.00;93358.97;5089002;28;19957;-50
2023/03/04 01:09:48;;;;;;;;;;;;;;;4.44;100.00;93354.94;5071842;28;19919;-51
2023/03/04 01:12:14;;;;;;;;;;;;;;;4.42;100.00;93354.72;5097231;28;20416;-50
2023/03/04 01:14:39;;;;;;;;;;;;;;;4.38;100.00;93354.25;5095722;28;19927;-50
2023/03/04 01:17:04;;;;;;;;;;;;;;;4.32;100.00;93356.31;5086022;28;19962;-52
2023/03/04 01:19:30;;;;;;;;;;;;;;;4.30;100.00;93353.34;5088282;28;20379;-51
2023/03/04 01:21:55;;;;;;;;;;;;;;;4.35;100.00;93351.81;5087695;28;19999;-51
2023/03/04 01:24:20;;;;;;;;;;;;;;;4.22;100.00;93348.94;5091247;28;19916;-51
2023/03/04 01:26:46;;;;;;;;;;;;;;;4.10;100.00;93344.81;5093322;28;19925;-52
2023/03/04 01:29:11;;;;;;;;;;;;;;;4.14;100.00;93340.56;5098642;28;19929;-52
2023/03/04 01:31:36;;;;;;;;;;;;;;;4.07;100.00;93341.09;5089556;28;20422;-50
2023/03/04 01:34:02;;;;;;;;;;;;;;;3.83;100.00;93335.59;5100109;28;19935;-51
2023/03/04 01:36:27;;;;;;;;;;;;;;;3.99;100.00;93340.19;5095580;28;19938;-52
2023/03/04 01:38:52;;;;;;;;;;;;;;;4.11;100.00;93338.88;5086427;28;19920;-51
2023/03/04 01:41:18;;;;;;;;;;;;;;;4.02;100.00;93338.44;5097538;28;19915;-54
2023/03/04 01:43:44;;;;;;;;;;;;;;;3.98;100.00;93337.97;5096995;28;19967;-51
2023/03/04 01:46:09;;;;;;;;;;;;;;;4.08;100.00;93339.88;5088811;28;19957;-53
2023/03/04 01:48:36;;;;;;;;;;;;;;;4.22;100.00;93338.03;5095983;28;20283;-52
2023/03/04 01:51:02;;;;;;;;;;;;;;;4.21;100.00;93336.53;5102935;28;19948;-51
2023/03/04 01:53:28;;;;;;;;;;;;;;;4.20;100.00;93335.78;5091783;28;19927;-50
2023/03/04 01:55:54;;;;;;;;;;;;;;;4.10;100.00;93331.91;5093069;28;19916;-50
2023/03/04 01:58:19;;;;;;;;;;;;;;;4.17;100.00;93328.63;5097599;28;19912;-50
2023/03/04 02:00:44;;;;;;;;;;;;;;;4.14;100.00;93335.09;5105103;28;19916;-50
2023/03/04 02:03:11;;;;;;;;;;;;;;;4.07;100.00;93326.72;5096056;28;20307;-51
2023/03/04 02:05:37;;;;;;;;;;;;;;;4.09;100.00;93326.97;5104528;27;20288;-50
2023/03/04 02:08:03;;;;;;;;;;;;;;;4.08;100.00;93323.47;5100695;28;19932;-50
2023/03/04 02:10:28;;;;;;;;;;;;;;;4.08;100.00;93320.75;5115946;27;19917;-51
2023/03/04 02:12:53;;;;;;;;;;;;;;;4.03;100.00;93318.06;5085791;28;19912;-50
2023/03/04 02:15:19;;;;;;;;;;;;;;;4.00;100.00;93319.09;5094368;28;19912;-51
2023/03/04 02:17:44;;;;;;;;;;;;;;;4.10;100.00;93326.44;5093043;28;19912;-51
2023/03/04 02:20:09;;;;;;;;;;;;;;;4.18;100.00;93323.91;5088226;28;20379;-53
2023/03/04 02:22:35;;;;;;;;;;;;;;;4.14;100.00;93312.50;5087294;28;19965;-53
2023/03/04 02:25:02;;;;;;;;;;;;;;;4.16;100.00;93316.19;5112820;27;19982;-51
2023/03/04 02:27:28;;;;;;;;;;;;;;;4.12;100.00;93315.75;5081756;28;19916;-51
2023/03/04 02:29:53;;;;;;;;;;;;;;;4.24;100.00;93319.13;5076940;28;19923;-50
2023/03/04 02:32:18;;;;;;;;;;;;;;;4.20;100.00;93313.19;5102025;28;20296;-52
2023/03/04 02:34:48;;;;;;;;;;;;;;;4.14;100.00;93312.50;5082457;28;19912;-50
2023/03/04 02:37:13;;;;;;;;;;;;;;;3.98;100.00;93310.66;5085838;28;19982;-51
2023/03/04 02:39:39;;;;;;;;;;;;;;;3.96;100.00;93308.44;5091689;28;19969;-50
2023/03/04 02:42:05;;;;;;;;;;;;;;;3.72;100.00;93300.94;5110161;27;19915;-51
2023/03/04 02:44:42;;;;;;;;;;;;;;;3.78;100.00;93309.81;5096422;28;20376;-49
2023/03/04 02:47:08;;;;;;;;;;;;;;;3.35;100.00;93316.31;5093559;28;19935;-50
2023/03/04 02:49:33;;;;;;;;;;;;;;;3.17;100.00;93314.19;5096992;28;19920;-49
2023/03/04 02:52:01;;;;;;;;;;;;;;;3.21;100.00;93312.66;5100056;28;20376;-49
2023/03/04 02:54:27;;;;;;;;;;;;;;;3.12;100.00;93310.22;5090235;28;20034;-50
2023/03/04 02:56:54;;;;;;;;;;;;;;;3.15;100.00;93320.16;5096504;28;20006;-50
2023/03/04 02:59:19;;;;;;;;;;;;;;;3.04;100.00;93320.94;5089902;28;19947;-51
2023/03/04 03:01:45;;;;;;;;;;;;;;;2.72;100.00;93321.81;5097887;28;19982;-51
2023/03/04 03:04:10;;;;;;;;;;;;;;;2.45;100.00;93315.22;5098996;28;19912;-49
2023/03/04 03:06:35;;;;;;;;;;;;;;;2.36;100.00;93315.47;5096096;28;19931;-52
2023/03/04 03:09:01;;;;;;;;;;;;;;;2.25;100.00;93320.97;5104544;28;19916;-51
2023/03/04 03:11:26;;;;;;;;;;;;;;;2.25;100.00;93323.69;5102109;28;19920;-54
2023/03/04 03:13:51;;;;;;;;;;;;;;;2.35;100.00;93324.91;5096633;28;19955;-52
2023/03/04 03:16:16;;;;;;;;;;;;;;;2.35;100.00;93321.44;5094902;28;20668;-51
2023/03/04 03:18:42;;;;;;;;;;;;;;;2.33;100.00;93321.19;5099707;28;20018;-51
2023/03/04 03:21:07;;;;;;;;;;;;;;;2.35;100.00;93324.91;5099952;28;19927;-52
2023/03/04 03:23:33;;;;;;;;;;;;;;;2.24;100.00;93317.50;5092035;28;20571;-50
2023/03/04 03:25:58;;;;;;;;;;;;;;;2.06;100.00;93323.44;5092218;28;20436;-51
2023/03/04 03:28:23;;;;;;;;;;;;;;;1.84;100.00;93322.75;5097611;28;19915;-51
2023/03/04 03:30:48;;;;;;;;;;;;;;;1.86;100.00;93318.28;5086754;28;20343;-50
2023/03/04 03:33:14;;;;;;;;;;;;;;;2.07;100.00;93324.94;5101275;28;19916;-51
2023/03/04 03:35:39;;;;;;;;;;;;;;;2.09;100.00;93319.75;5099922;28;20379;-53
2023/03/04 03:38:04;;;;;;;;;;;;;;;2.07;100.00;93324.19;5093893;28;19916;-52
2023/03/04 03:40:29;;;;;;;;;;;;;;;2.05;100.00;93316.53;5102657;28;20006;-53
2023/03/04 03:42:55;;;;;;;;;;;;;;;2.08;100.00;93328.41;5099136;28;19920;-52
2023/03/04 03:45:20;;;;;;;;;;;;;;;2.12;100.00;93323.47;5097338;28;20356;-54
2023/03/04 03:47:45;;;;;;;;;;;;;;;2.22;100.00;93316.50;5092513;28;19916;-53
2023/03/04 03:50:10;;;;;;;;;;;;;;;2.20;100.00;93317.00;5100611;28;19912;-50
2023/03/04 03:52:36;;;;;;;;;;;;;;;2.23;100.00;93321.44;5088945;28;19966;-52
2023/03/04 03:55:01;;;;;;;;;;;;;;;2.23;100.00;93313.28;5095982;28;20003;-51
2023/03/04 03:57:27;;;;;;;;;;;;;;;2.33;100.00;93313.00;5098545;28;19916;-51
2023/03/04 03:59:52;;;;;;;;;;;;;;;2.38;100.00;93315.00;5099340;28;19919;-52
2023/03/04 04:02:17;;;;;;;;;;;;;;;2.42;100.00;93313.50;5097480;28;20303;-52
2023/03/04 04:04:43;;;;;;;;;;;;;;;2.46;100.00;93305.81;5110263;27;19916;-52
2023/03/04 04:07:08;;;;;;;;;;;;;;;2.47;100.00;93309.28;5100189;28;19931;-52
2023/03/04 04:09:33;;;;;;;;;;;;;;;2.46;100.00;93310.50;5096689;28;19912;-52
2023/03/04 04:11:58;;;;;;;;;;;;;;;2.48;100.00;93313.47;5095888;28;19916;-52
2023/03/04 04:14:24;;;;;;;;;;;;;;;2.56;100.00;93309.72;5097641;28;19912;-51
2023/03/04 04:16:49;;;;;;;;;;;;;;;2.68;100.00;93305.00;5097756;28;19916;-51
2023/03/04 04:19:18;;;;;;;;;;;;;;;2.70;100.00;93305.22;5100346;28;20406;-51
2023/03/04 04:21:43;;;;;;;;;;;;;;;2.67;100.00;93304.25;5094634;28;19915;-54
2023/03/04 04:24:08;;;;;;;;;;;;;;;2.84;100.00;93298.72;5091352;28;20284;-51
2023/03/04 04:26:33;;;;;;;;;;;;;;;2.91;100.00;93300.91;5089986;28;19920;-52
2023/03/04 04:28:59;;;;;;;;;;;;;;;2.83;100.00;93303.44;5091435;28;19923;-52
2023/03/04 04:31:24;;;;;;;;;;;;;;;2.94;100.00;93299.94;5091438;28;19919;-53
2023/03/04 04:33:49;;;;;;;;;;;;;;;3.10;100.00;93299.09;5097414;28;19916;-50
2023/03/04 04:36:15;;;;;;;;;;;;;;;3.28;100.00;93298.50;5090177;28;19915;-50
2023/03/04 04:38:40;;;;;;;;;;;;;;;3.29;100.00;93301.97;5094231;28;19916;-49
2023/03/04 04:41:07;;;;;;;;;;;;;;;3.38;100.00;93309.88;5088803;28;19963;-49
2023/03/04 04:43:33;;;;;;;;;;;;;;;3.38;100.00;93305.13;5107661;27;19916;-48
2023/03/04 04:45:58;;;;;;;;;;;;;;;3.45;100.00;93304.59;5090557;28;20391;-49
2023/03/04 04:48:23;;;;;;;;;;;;;;;3.47;100.00;93299.38;5088026;28;19917;-48
2023/03/04 04:50:52;;;;;;;;;;;;;;;3.41;100.00;93306.84;5096150;28;19919;-49
2023/03/04 04:53:18;;;;;;;;;;;;;;;3.30;100.00;93308.91;5102560;28;19912;-49
2023/03/04 04:55:43;;;;;;;;;;;;;;;3.10;100.00;93307.28;5099453;28;19926;-50
2023/03/04 04:58:08;;;;;;;;;;;;;;;3.06;100.00;93307.53;5098732;28;20449;-51
2023/03/04 05:00:33;;;;;;;;;;;;;;;3.01;100.00;93321.94;5093580;28;19936;-49
2023/03/04 05:02:59;;;;;;;;;;;;;;;3.16;100.00;93315.44;5091190;28;19919;-49
2023/03/04 05:05:24;;;;;;;;;;;;;;;3.22;100.00;93311.44;5100066;28;20010;-49
2023/03/04 05:07:49;;;;;;;;;;;;;;;3.38;100.00;93313.31;5091445;28;19927;-49
2023/03/04 05:10:15;;;;;;;;;;;;;;;3.36;100.00;93320.50;5099169;28;20616;-48
2023/03/04 05:12:40;;;;;;;;;;;;;;;3.28;100.00;93314.13;5098012;28;19920;-49
2023/03/04 05:15:06;;;;;;;;;;;;;;;3.37;100.00;93313.81;5095641;28;20417;-50
2023/03/04 05:17:31;;;;;;;;;;;;;;;3.25;100.00;93315.16;5090789;28;19916;-48
2023/03/04 05:19:56;;;;;;;;;;;;;;;3.40;100.00;93312.81;5094858;28;19976;-51
2023/03/04 05:22:21;;;;;;;;;;;;;;;3.41;100.00;93317.03;5100695;28;19912;-51
2023/03/04 05:24:47;;;;;;;;;;;;;;;3.56;100.00;93320.16;5097303;28;19981;-51
2023/03/04 05:27:12;;;;;;;;;;;;;;;3.41;100.00;93322.47;5089736;28;19922;-50
2023/03/04 05:29:37;;;;;;;;;;;;;;;3.45;100.00;93320.22;5092795;28;20415;-52
2023/03/04 05:32:02;;;;;;;;;;;;;;;3.54;100.00;93325.38;5104398;28;19916;-49
2023/03/04 05:34:28;;;;;;;;;;;;;;;3.50;100.00;93324.91;5097282;28;20534;-49
2023/03/04 05:36:53;;;;;;;;;;;;;;;3.53;100.00;93330.09;5094472;28;20315;-49
2023/03/04 05:39:18;;;;;;;;;;;;;;;3.59;100.00;93332.78;5101120;28;19926;-50
2023/03/04 05:41:44;;;;;;;;;;;;;;;3.64;100.00;93323.81;5093848;28;19920;-50
2023/03/04 05:44:09;;;;;;;;;;;;;;;3.52;100.00;93336.06;5097547;28;19951;-50
2023/03/04 05:46:34;;;;;;;;;;;;;;;3.64;100.00;93324.56;5093128;28;19920;-51
2023/03/04 05:48:59;;;;;;;;;;;;;;;3.83;100.00;93325.41;5095180;28;20015;-50
2023/03/04 05:51:25;;;;;;;;;;;;;;;4.00;100.00;93336.22;5091809;28;19923;-50
2023/03/04 05:53:50;;;;;;;;;;;;;;;3.85;100.00;93336.56;5091795;28;19959;-51
2023/03/04 05:56:17;;;;;;;;;;;;;;;3.92;100.00;93340.72;5083591;28;19959;-49
2023/03/04 05:58:43;;;;;;;;;;;;;;;4.07;98.23;93343.84;5095861;28;20042;-50
2023/03/04 06:01:08;;;;;;;;;;;;;;;3.98;97.04;93335.25;5090040;28;20019;-50
2023/03/04 06:03:33;;;;;;;;;;;;;;;4.03;98.63;93337.19;5090943;28;19916;-49
2023/03/04 06:05:58;;;;;;;;;;;;;;;3.96;100.00;93341.22;5093663;28;19928;-50
2023/03/04 06:08:24;;;;;;;;;;;;;;;4.05;100.00;93348.34;5098481;28;19931;-50
2023/03/04 06:10:51;;;;;;;;;;;;;;;4.14;99.70;93353.47;5105759;28;19916;-50
2023/03/04 06:13:16;;;;;;;;;;;;;;;4.25;99.65;93353.38;5101123;28;19967;-51
2023/03/04 06:15:42;;;;;;;;;;;;;;;4.27;100.00;93357.09;5101482;28;19947;-50
2023/03/04 06:18:07;;;;;;;;;;;;;;;4.26;100.00;93349.41;5096821;28;19935;-50
2023/03/04 06:20:32;;;;;;;;;;;;;;;4.36;98.87;93353.28;5092213;28;19916;-50
2023/03/04 06:22:57;;;;;;;;;;;;;;;4.09;98.48;93357.75;5090618;28;20412;-51
2023/03/04 06:25:23;;;;;;;;;;;;;;;4.03;97.98;93351.56;5093249;28;19973;-49
2023/03/04 06:27:48;;;;;;;;;;;;;;;3.96;96.78;93349.41;5102255;28;19919;-50
2023/03/04 06:30:13;;;;;;;;;;;;;;;3.94;96.81;93349.19;5096931;28;19926;-52
2023/03/04 06:32:39;;;;;;;;;;;;;;;3.93;98.66;93352.41;5096443;28;19923;-50
2023/03/04 06:35:05;;;;;;;;;;;;;;;4.04;99.27;93358.53;5099840;28;19916;-49
2023/03/04 06:37:30;;;;;;;;;;;;;;;4.06;99.29;93352.56;5100967;28;19916;-49
2023/03/04 06:39:55;;;;;;;;;;;;;;;4.09;99.29;93357.00;5103851;28;20437;-47
2023/03/04 06:42:20;;;;;;;;;;;;;;;4.16;97.90;93356.47;5096180;28;19912;-50
2023/03/04 06:44:48;;;;;;;;;;;;;;;4.26;96.38;93357.59;5098664;28;19924;-50
2023/03/04 06:47:13;;;;;;;;;;;;;;;4.02;95.40;93355.56;5097116;28;20407;-49
2023/03/04 06:49:39;;;;;;;;;;;;;;;4.12;95.54;93362.19;5100137;28;19967;-51
2023/03/04 06:52:04;;;;;;;;;;;;;;;4.31;96.60;93360.28;5105184;28;19920;-50
2023/03/04 06:54:29;;;;;;;;;;;;;;;4.43;95.80;93358.19;5102587;28;19919;-50
2023/03/04 06:56:54;;;;;;;;;;;;;;;4.44;95.10;93360.41;5097896;28;19954;-50
2023/03/04 06:59:20;;;;;;;;;;;;;;;4.40;95.53;93359.97;5103105;28;19933;-52
2023/03/04 07:01:45;;;;;;;;;;;;;;;4.36;95.52;93361.47;5086332;28;20011;-51
2023/03/04 07:04:11;;;;;;;;;;;;;;;4.33;93.69;93365.25;5104161;28;20395;-52
2023/03/04 07:06:36;;;;;;;;;;;;;;;4.34;94.72;93370.19;5080665;28;19924;-49
2023/03/04 07:09:01;;;;;;;;;;;;;;;4.36;93.94;93364.22;5092190;28;20379;-48
2023/03/04 07:11:27;;;;;;;;;;;;;;;4.41;95.90;93361.44;5097422;28;19960;-49
2023/03/04 07:13:52;;;;;;;;;;;;;;;4.50;94.90;93366.56;5101491;28;19980;-50
2023/03/04 07:16:19;;;;;;;;;;;;;;;4.69;93.42;93371.38;5090285;28;19958;-51
2023/03/04 07:18:44;;;;;;;;;;;;;;;4.86;92.08;93369.19;5094979;28;19922;-52
2023/03/04 07:21:10;;;;;;;;;;;;;;;4.88;91.97;93377.63;5099099;28;19919;-55
2023/03/04 07:23:35;;;;;;;;;;;;;;;4.88;90.63;93369.44;5100641;28;19916;-52
2023/03/04 07:26:01;;;;;;;;;;;;;;;4.95;91.65;93371.59;5096878;28;20784;-53
2023/03/04 07:28:26;;;;;;;;;;;;;;;4.81;90.08;93380.97;5084439;28;19924;-54
2023/03/04 07:30:51;;;;;;;;;;;;;;;4.98;89.46;93374.03;5101347;28;19945;-53
2023/03/04 07:33:17;;;;;;;;;;;;;;;4.93;90.76;93387.78;5101359;28;19951;-54
2023/03/04 07:35:42;;;;;;;;;;;;;;;4.93;91.32;93380.31;5102000;28;19912;-52
2023/03/04 07:38:07;;;;;;;;;;;;;;;4.88;92.09;93370.16;5098157;28;19980;-53
2023/03/04 07:40:33;;;;;;;;;;;;;;;5.06;91.69;93368.72;5100418;28;19919;-53
2023/03/04 07:42:58;;;;;;;;;;;;;;;4.99;90.38;93375.53;5096035;28;20002;-54
2023/03/04 07:45:23;;;;;;;;;;;;;;;4.88;90.46;93372.91;5092780;28;19943;-52
2023/03/04 07:47:49;;;;;;;;;;;;;;;4.75;90.11;93385.72;5092432;28;20407;-51
2023/03/04 07:50:14;;;;;;;;;;;;;;;4.78;89.88;93379.25;5101580;28;19999;-50
2023/03/04 07:52:40;;;;;;;;;;;;;;;4.50;89.59;93363.09;5102454;28;19927;-50
2023/03/04 07:55:06;;;;;;;;;;;;;;;4.42;90.71;93390.25;5099494;28;19920;-51
2023/03/04 07:57:31;;;;;;;;;;;;;;;4.63;90.87;93378.88;5098470;28;19916;-53
2023/03/04 07:59:56;;;;;;;;;;;;;;;4.53;91.10;93387.41;5099711;28;21325;-53
2023/03/04 08:02:22;;;;;;;;;;;;;;;4.65;91.35;93374.41;5099341;28;19916;-55
2023/03/04 08:04:47;;;;;;;;;;;;;;;4.48;91.27;93382.75;5100331;28;20011;-49
2023/03/04 08:07:12;;;;;;;;;;;;;;;4.47;91.85;93381.28;5095698;28;20322;-51
2023/03/04 08:09:38;;;;;;;;;;;;;;;4.53;92.45;93373.00;5094615;28;19916;-50
2023/03/04 08:12:03;;;;;;;;;;;;;;;4.53;92.79;93373.75;5099094;28;19926;-51
2023/03/04 08:14:28;;;;;;;;;;;;;;;4.41;91.93;93379.84;5098517;28;19982;-51
2023/03/04 08:16:53;;;;;;;;;;;;;;;4.43;91.29;93371.88;5093658;28;19916;-51
2023/03/04 08:19:19;;;;;;;;;;;;;;;4.76;90.24;93371.56;5093386;28;20090;-52
2023/03/04 08:21:44;;;;;;;;;;;;;;;4.91;88.83;93365.66;5096493;28;19943;-51
2023/03/04 08:24:09;;;;;;;;;;;;;;;4.63;89.71;93373.41;5103374;28;20019;-54
2023/03/04 08:26:45;;;;;;;;;;;;;;;4.80;90.31;93372.00;5100870;28;19923;-52
2023/03/04 08:29:12;;;;;;;;;;;;;;;5.09;89.32;93368.44;5100865;28;19927;-51
2023/03/04 08:31:38;;;;;;;;;;;;;;;5.18;88.02;93370.06;5097719;28;19919;-50
2023/03/04 08:34:03;;;;;;;;;;;;;;;5.00;87.86;93368.78;5096931;28;20007;-52
2023/03/04 08:36:29;;;;;;;;;;;;;;;5.05;87.49;93373.47;5103331;28;19924;-51
2023/03/04 08:38:54;;;;;;;;;;;;;;;5.24;87.62;93373.50;5101648;28;20019;-52
2023/03/04 08:41:19;;;;;;;;;;;;;;;5.33;88.95;93365.66;5091441;28;20404;-51
2023/03/04 08:43:44;;;;;;;;;;;;;;;5.41;87.93;93371.31;5088772;28;19924;-51
2023/03/04 08:46:10;;;;;;;;;;;;;;;5.48;87.14;93373.44;5094402;28;19927;-52
2023/03/04 08:48:35;;;;;;;;;;;;;;;5.37;87.08;93370.84;5088922;28;19976;-53
2023/03/04 08:51:01;;;;;;;;;;;;;;;5.54;86.08;93371.38;5087455;28;20015;-52
2023/03/04 08:53:26;;;;;;;;;;;;;;;5.47;85.78;93366.50;5102727;27;20354;-51
2023/03/04 08:55:52;;;;;;;;;;;;;;;5.59;85.29;93370.56;5095076;28;19919;-53
2023/03/04 08:58:17;;;;;;;;;;;;;;;5.54;85.68;93365.16;5096055;28;19916;-54
2023/03/04 09:00:44;;;;;;;;;;;;;;;5.44;86.04;93358.56;5090371;28;19955;-51
2023/03/04 09:03:12;;;;;;;;;;;;;;;5.62;85.95;93358.56;5084475;28;19920;-51
2023/03/04 09:05:38;;;;;;;;;;;;;;;5.70;85.92;93356.72;5090065;28;19920;-49
2023/03/04 09:08:03;;;;;;;;;;;;;;;5.68;86.30;93353.00;5093896;28;19931;-52
2023/03/04 09:10:28;;;;;;;;;;;;;;;5.64;86.25;93358.03;5093023;28;20318;-53
2023/03/04 09:12:53;;;;;;;;;;;;;;;5.74;84.92;93359.16;5095777;28;19923;-51
2023/03/04 09:15:19;;;;;;;;;;;;;;;5.80;84.25;93354.34;5099593;28;19941;-52
2023/03/04 09:17:44;;;;;;;;;;;;;;;5.88;82.24;93349.75;5090066;28;19916;-52
2023/03/04 09:20:09;;;;;;;;;;;;;;;5.80;83.36;93349.59;5096326;28;19955;-54
2023/03/04 09:22:35;;;;;;;;;;;;;;;5.94;83.92;93348.41;5097444;28;19916;-54
2023/03/04 09:25:01;;;;;;;;;;;;;;;6.15;83.74;93345.13;5097245;28;19923;-53
2023/03/04 09:27:26;;;;;;;;;;;;;;;6.37;82.94;93350.97;5095387;28;19930;-52
2023/03/04 09:29:51;;;;;;;;;;;;;;;6.31;80.30;93344.84;5090294;28;19927;-51
2023/03/04 09:32:17;;;;;;;;;;;;;;;6.23;80.42;93344.00;5089493;28;20433;-54
2023/03/04 09:34:42;;;;;;;;;;;;;;;6.10;79.52;93343.94;5091910;28;19923;-53
2023/03/04 09:37:07;;;;;;;;;;;;;;;5.87;80.81;93340.06;5092691;28;19922;-53
2023/03/04 09:39:33;;;;;;;;;;;;;;;6.03;80.47;93337.06;5095515;28;20418;-51
2023/03/04 09:41:58;;;;;;;;;;;;;;;6.23;81.24;93335.03;5080296;28;20003;-52
2023/03/04 09:44:23;;;;;;;;;;;;;;;6.39;80.86;93328.53;5077059;28;19931;-51
2023/03/04 09:46:50;;;;;;;;;;;;;;;6.44;79.74;93333.16;5097781;28;19917;-50
2023/03/04 09:49:16;;;;;;;;;;;;;;;6.67;79.35;93337.72;5092880;28;19936;-50
2023/03/04 09:51:46;;;;;;;;;;;;;;;6.52;78.70;93336.78;5084551;28;19916;-51
2023/03/04 09:54:22;;;;;;;;;;;;;;;6.42;80.22;93333.69;5058182;28;19920;-52
2023/03/04 09:56:48;;;;;;;;;;;;;;;6.65;80.46;93332.03;5086241;28;19920;-51
2023/03/04 09:59:34;;;;;;;;;;;;;;;6.77;78.94;93335.31;5088206;28;20413;-53
2023/03/04 10:02:01;;;;;;;;;;;;;;;6.85;79.29;93330.69;5067506;28;19927;-50
2023/03/04 10:04:33;;;;;;;;;;;;;;;6.89;78.18;93329.09;5084160;28;19923;-52
2023/03/04 10:06:59;;;;;;;;;;;;;;;6.95;78.01;93322.78;5087719;28;20519;-51
2023/03/04 10:09:29;;;;;;;;;;;;;;;7.06;79.05;93315.03;5071070;28;20340;-52
2023/03/04 10:12:02;;;;;;;;;;;;;;;7.03;78.38;93318.88;5087419;28;20089;-50
2023/03/04 10:14:32;;;;;;;;;;;;;;;7.33;77.85;93321.25;5098221;28;19926;-52
2023/03/04 10:16:58;;;;;;;;;;;;;;;7.41;76.19;93313.84;5095084;28;20399;-51
2023/03/04 10:19:49;;;;;;;;;;;;;;;7.61;74.90;93322.16;5087238;28;19920;-51
2023/03/04 10:22:43;;;;;;;;;;;;;;;7.89;75.27;93305.03;5082152;28;20010;-53
2023/03/04 10:25:14;;;;;;;;;;;;;;;8.24;73.76;93314.72;5089704;28;19958;-53
2023/03/04 10:27:39;;;;;;;;;;;;;;;8.30;74.08;93293.31;5089000;28;19924;-53
2023/03/04 10:30:05;;;;;;;;;;;;;;;8.47;70.77;93299.16;5102237;27;20308;-52
2023/03/04 10:32:31;;;;;;;;;;;;;;;8.88;69.62;93290.09;5064267;28;19919;-52
2023/03/04 10:34:56;;;;;;;;;;;;;;;9.13;68.40;93283.63;5087989;28;19920;-51
2023/03/04 10:37:21;;;;;;;;;;;;;;;10.41;65.40;93288.78;5092116;28;19922;-51
2023/03/04 10:39:48;;;;;;;;;;;;;;;11.69;57.46;93279.53;5109045;27;19981;-51
2023/03/04 10:42:13;;;;;;;;;;;;;;;11.79;57.56;93274.09;5099710;27;19920;-50
2023/03/04 10:44:40;;;;;;;;;;;;;;;12.44;58.01;93270.00;5082275;28;19949;-50
2023/03/04 10:47:08;;;;;;;;;;;;;;;13.36;51.99;93260.31;5092549;28;20292;-53
2023/03/04 10:49:34;;;;;;;;;;;;;;;13.08;51.95;93257.31;5094420;28;19954;-53
2023/03/04 10:51:59;;;;;;;;;;;;;;;12.47;53.72;93263.34;5106260;27;20400;-51
2023/03/04 10:54:24;;;;;;;;;;;;;;;11.53;55.50;93264.25;5094392;28;19916;-52
2023/03/04 10:56:59;;;;;;;;;;;;;;;10.83;56.89;93267.03;5100546;28;19916;-50
2023/03/04 10:59:24;;;;;;;;;;;;;;;10.49;58.85;93252.88;5085687;28;20006;-51
2023/03/04 11:01:50;;;;;;;;;;;;;;;9.98;61.66;93255.78;5095585;28;20003;-49
2023/03/04 11:04:18;;;;;;;;;;;;;;;9.90;64.42;93246.75;5084018;28;19920;-49
2023/03/04 11:06:43;;;;;;;;;;;;;;;10.22;64.07;93249.75;5090806;28;19920;-51
2023/03/04 11:09:20;;;;;;;;;;;;;;;9.67;63.00;93237.72;5095518;28;19916;-51
2023/03/04 11:11:45;;;;;;;;;;;;;;;9.04;65.99;93234.56;5088494;28;19915;-51
2023/03/04 11:14:13;;;;;;;;;;;;;;;9.09;67.74;93227.41;5080370;28;19916;-50
2023/03/04 11:16:38;;;;;;;;;;;;;;;9.28;67.84;93230.63;5077779;28;19919;-52
2023/03/04 11:19:12;;;;;;;;;;;;;;;9.78;65.97;93229.09;5085898;28;19965;-52
2023/03/04 11:21:39;;;;;;;;;;;;;;;9.98;66.87;93230.22;5088506;28;19916;-51
2023/03/04 11:24:14;;;;;;;;;;;;;;;10.49;61.22;93220.50;5087792;28;20311;-54
2023/03/04 11:26:42;;;;;;;;;;;;;;;10.30;63.11;93214.63;5097690;27;19931;-51
2023/03/04 11:29:13;;;;;;;;;;;;;;;10.51;64.70;93214.44;5096808;28;20026;-53
2023/03/04 11:31:39;;;;;;;;;;;;;;;10.44;61.60;93215.16;5082459;28;20014;-51
2023/03/04 11:34:11;;;;;;;;;;;;;;;10.55;63.15;93207.25;5101141;28;20360;-51
2023/03/04 11:36:45;;;;;;;;;;;;;;;10.81;60.57;93202.59;5100263;27;19934;-50
2023/03/04 11:39:16;;;;;;;;;;;;;;;10.48;63.76;93204.50;5062915;28;19970;-52
2023/03/04 11:41:44;;;;;;;;;;;;;;;11.34;59.79;93192.09;5068585;28;20036;-51
2023/03/04 11:44:10;;;;;;;;;;;;;;;10.81;59.82;93197.06;5068470;28;20513;-52
2023/03/04 11:46:39;;;;;;;;;;;;;;;11.78;60.28;93190.38;5100501;27;19977;-50
2023/03/04 11:49:23;;;;;;;;;;;;;;;12.41;59.12;93184.59;5100395;27;20388;-51
2023/03/04 11:52:09;;;;;;;;;;;;;;;12.73;57.67;93181.69;5084085;28;19920;-51
2023/03/04 11:54:53;;;;;;;;;;;;;;;12.76;57.28;93180.53;5080294;28;19951;-51
2023/03/04 11:57:37;;;;;;;;;;;;;;;12.81;55.83;93182.34;5088588;28;19939;-54
2023/03/04 12:00:15;;;;;;;;;;;;;;;13.09;52.99;93181.88;5072589;28;20458;-52
2023/03/04 12:02:59;;;;;;;;;;;;;;;12.78;53.00;93170.38;5084401;28;20527;-51
2023/03/04 12:05:30;;;;;;;;;;;;;;;12.46;55.47;93170.50;5085610;28;19920;-50
2023/03/04 12:07:55;;;;;;;;;;;;;;;12.38;53.44;93171.88;5085173;28;19923;-51
2023/03/04 12:10:39;;;;;;;;;;;;;;;11.86;56.93;93163.44;5080939;28;19974;-50
2023/03/04 12:13:23;;;;;;;;;;;;;;;11.22;59.39;93163.41;5083965;28;19959;-50
2023/03/04 12:15:51;;;;;;;;;;;;;;;11.54;57.65;93157.91;5084120;28;19916;-49
2023/03/04 12:18:21;;;;;;;;;;;;;;;11.59;57.84;93145.88;5085795;28;19934;-49
2023/03/04 12:20:58;;;;;;;;;;;;;;;11.35;58.72;93155.59;5097790;27;19963;-50
2023/03/04 12:23:39;;;;;;;;;;;;;;;11.83;56.29;93144.44;5084527;28;19927;-50
2023/03/04 12:26:16;;;;;;;;;;;;;;;11.80;56.46;93140.78;5080447;28;20464;-50
2023/03/04 12:29:00;;;;;;;;;;;;;;;12.27;56.97;93142.63;5082671;28;19920;-51
2023/03/04 12:31:41;;;;;;;;;;;;;;;12.98;53.34;93131.72;5083349;28;19912;-51
2023/03/04 12:34:13;;;;;;;;;;;;;;;12.90;53.63;93129.06;5068887;28;19923;-50
2023/03/04 12:36:53;;;;;;;;;;;;;;;12.34;52.98;93128.00;5083516;28;19919;-53
2023/03/04 12:39:30;;;;;;;;;;;;;;;11.91;53.29;93132.03;5079781;28;20015;-51
2023/03/04 12:41:55;;;;;;;;;;;;;;;11.55;56.91;93123.41;5068152;28;19966;-52
2023/03/04 12:44:21;;;;;;;;;;;;;;;11.24;58.42;93122.84;5086341;28;19916;-50
2023/03/04 12:46:49;;;;;;;;;;;;;;;11.16;56.80;93124.19;5083781;28;19923;-50
2023/03/04 12:49:15;;;;;;;;;;;;;;;11.31;55.44;93121.34;5082559;28;20430;-51